This is the latest recevied weather packets stored in our database for station/object DH0DM-13. If no packets are shown the sender has not sent any weather packets the latest 1 day(s).
| Time | Temp. | Humidity | Pressure | Rain* | Wind** | Luminosity | Snow |
|---|---|---|---|---|---|---|---|
| 1777988018 | 21.11° C | 60% | 981.4 hPa | 0.25 mm | 0.45 m/s, 340° | - | - |
| 1777987417 | 21.11° C | 56% | 981.4 hPa | 0.25 mm | 1.79 m/s, 357° | - | - |
| 1777986817 | 21.67° C | 59% | 981.6 hPa | 0.25 mm | 3.13 m/s, 328° | - | - |
| 1777986219 | 21.67° C | 58% | 981.7 hPa | 0.25 mm | 6.71 m/s, 338° | - | - |
| 1777985614 | 21.11° C | 59% | 981.7 hPa | 0.25 mm | 2.68 m/s, 324° | - | - |
| 1777985014 | 21.11° C | 60% | 981.7 hPa | 0.25 mm | 4.47 m/s, 306° | - | - |
| 1777984413 | 20.56° C | 61% | 981.8 hPa | 0.25 mm | 5.81 m/s, 354° | - | - |
| 1777983812 | 21.67° C | 59% | 981.8 hPa | 0.25 mm | 2.68 m/s, 292° | - | - |
| 1777983211 | 21.11° C | 60% | 981.8 hPa | 0.25 mm | 4.02 m/s, 302° | - | - |
| 1777982610 | 21.67° C | 60% | 981.9 hPa | 0.25 mm | 0 m/s | - | - |
| 1777982009 | 22.22° C | 60% | 981.9 hPa | 0.25 mm | 2.24 m/s, 225° | - | - |
| 1777981409 | 21.67° C | 59% | 981.8 hPa | 0.25 mm | 8.49 m/s, 340° | - | - |
| 1777980808 | 21.11° C | 61% | 981.9 hPa | 0.25 mm | 3.58 m/s, 344° | - | - |
| 1777980207 | 20.56° C | 65% | 981.9 hPa | 0.25 mm | 3.58 m/s, 349° | - | - |
| 1777979606 | 20° C | 68% | 982 hPa | 0.25 mm | 1.79 m/s, 358° | - | - |
| 1777979005 | 20° C | 66% | 982.2 hPa | 0.25 mm | 4.92 m/s, 327° | - | - |
| 1777978404 | 20° C | 65% | 982.3 hPa | 0.25 mm | 3.58 m/s, 333° | - | - |
| 1777977803 | 20.56° C | 66% | 982.3 hPa | 0.25 mm | 0.45 m/s, 354° | - | - |
| 1777977202 | 20.56° C | 61% | 982.4 hPa | 0.25 mm | 2.24 m/s, 357° | - | - |
| 1777976601 | 21.11° C | 64% | 982.6 hPa | 0.25 mm | 0.89 m/s, 357° | - | - |
| 1777976000 | 20.56° C | 67% | 982.4 hPa | 0.25 mm | 2.68 m/s, 334° | - | - |
| 1777975400 | 20° C | 66% | 982.6 hPa | 0.25 mm | 2.68 m/s, 1° | - | - |
| 1777974799 | 19.44° C | 67% | 982.6 hPa | 0.25 mm | 3.58 m/s, 344° | - | - |
| 1777974198 | 19.44° C | 67% | 982.9 hPa | 0.25 mm | 2.68 m/s, 3° | - | - |
| 1777973597 | 18.89° C | 71% | 982.7 hPa | 0.25 mm | 0.45 m/s, 350° | - | - |
* Rain since midnight (hover to see other rain measurements)
** Current wind speed in m/s (hover to see current wind gust speed)